Relevés horaires Bierset (Belgique)


Relevés horaires à Bierset - Samedi 07 Déc. 2019
Heure UTC1 Température [°C] Vent [km/h] Hum. [%] Pres.4 [hPa] Visi. [Km] Nébu. [octa] Préc.5 [mm] Cond.
2m. Res. Ros. Dir.2 Vit. Moy. Raf.3
23:00 8.1 6.2 4.3 SSO 11.1 14.8 20.4 77 1014.7(-1.5/3h) 30 7/8 -- --
22:00 8.2 6 4.2 SSO 13.0 14.8 20.4 76 1015.5(-1.2/3h) 30 7/8 -- --
21:00 8.2 6 4.7 SSO 13.0 13.0 18.5 79 1015.7(-0.8/3h) 30 7/8 -- --
20:00 8.0 6 5.4 SSO 11.1 13.0 18.5 84 1016.3(0.1/3h) 30 7/8 -- --
19:00 7.9 5.9 5.4 SO 11.1 13.0 16.7 84 1016.7(0.0/3h) 30 7/8 -- --
18:00 8.0 6 5.1 SO 11.1 13.0 16.7 82 1016.6(0.5/3h) 30 7/8 0/12h
--
17:00 8.1 6.9 4.2 SO 7.4 11.1 13.0 76 1016.4(0.5/3h) 30 7/8 -- --
16:00 7.9 6.3 4.4 SO 9.3 11.1 14.8 79 1016.7(0.8/3h) 30 7/8 -- --
15:00 8.0 6 3.6 OSO 11.1 13.0 16.7 74 1016(0.6/3h) 30 7/8 -- --
14:00 8.3 6.7 5.2 O 9.3 11.1 14.8 81 1015.9(-0.2/3h) 25 7/8 -- --
13:00 8.5 6.6 5.8 OSO 11.1 13.0 16.7 83 1015.8(0.3/3h) 20 7/8 -- --
12:00 8.5 6.6 5.5 SO 11.1 13.0 16.7 81 1015.4(0.5/3h) 20 7/8 0/6h
--
11:00 8.2 6.3 5.6 SO 11.1 11.1 16.7 84 1015.8(1.3/3h) 20 7/8 -- --
10:00 8.3 6.4 5.2 OSO 11.1 11.1 14.8 81 1015.6(1.7/3h) 20 7/8 -- --
09:00 7.9 5.9 5.7 SO 11.1 13.0 16.7 86 1014.9(1.7/3h) 20 7/8 -- --
08:00 7.4 5.7 5.7 OSO 9.3 11.1 16.7 89 1014.6(2.0/3h) 20 7/8 -- --
07:00 7.5 5.4 5.7 OSO 11.1 13.0 16.7 88 1013.9(2.0/3h) 20 7/8 -- --
06:00 7.8 5.8 5.7 OSO 11.1 14.8 22.2 87 1013.2(2.1/3h) 20 7/8 0.9/12h
--
05:00 7.9 5.6 6.1 OSO 13.0 13.0 20.4 88 1012.4(2.0/3h) 20 7/8 -- --
04:00 8.0 5.7 6.1 OSO 13.0 13.0 20.4 88 1011.9(2.4/3h) 15 7/8 -- --
03:00 8.1 5.9 6.3 OSO 13.0 14.8 22.2 88 1011.1(2.0/3h) 24 7/8 -- --
02:00 8.3 5.8 6.7 OSO 14.8 14.8 20.4 90 1010.3(2.3/3h) 20 7/8 -- --
01:00 8.3 6.1 6.7 OSO 13.0 14.8 22.2 90 1009.4(1.7/3h) 25 7/8 -- --
00:00 8.3 6.1 6.9 OSO 13.0 20.4 29.6 91 1009(1.2/3h) 25 7/8 0.9/6h
3.1/24h
Il y a eu une averse de pluie à la station au cours de l'heure précédente, mais il n'y en a pas au moment de l'observation

1 Coordinated Universal Time. Actuellement il est 12:00 locale et 10:00 UTC.

2 Le vent souffle depuis la direction indiquée vers la direction oposée.

3 Les rafales max. sont disponible 40 min après l'heure du relevé.

4 Pour les stations d'altitude (plus de 600m) le géopotentiel du niveau le plus proche de la pression obligatoire est indiqué.

5 Les stations disposant d'un diffuseur peuvent indiquer "trace". Cela signifie que des précipitations ont touchés le sol mais que la quantité est inférieure à 0.1 mm.

Récapitulatif de la journée
Température [°C] Vent [km/h] Ensoleillement4 [h] Precipitations totale5 [mm] Pression [Hpa]
Min1 Max.2 Moy.3 Max. Min Max.
5.0 8.7 13.3 29.6 0 h 0 min 0 1009.0 1016.7

1 Température minimale relevée entre 18:00 UTC la veille et 18:00 UTC le jour donné.

2 Température maximale relevée entre 06:00 UTC le jour donné et 06:00 UTC le lendemain.

3 Vent moyen de la journée basé sur les relevés horaires.

4 Ensoleillement en heures relevé entre 06:00 UTC la veille et 06:00 UTC le jour donné.

5 Précipitations totales tombées entre 06:00 UTC la jour donné et 06:00 UTC le lendemain.

Graphiques horaires